createdAt,value
2018-09-06T00:04:38.767Z,58.23
2018-09-06T00:07:07.297Z,55.27
2018-09-06T00:09:35.875Z,55.90
2018-09-06T00:12:04.342Z,59.70
2018-09-06T00:14:32.813Z,59.23
2018-09-06T00:17:01.277Z,56.77
2018-09-06T00:19:29.755Z,51.87
2018-09-06T00:21:58.263Z,54.87
2018-09-06T00:24:26.815Z,55.27
2018-09-06T00:26:55.358Z,58.27
2018-09-06T00:29:23.968Z,55.73
2018-09-06T00:31:52.438Z,59.37
2018-09-06T00:34:21.002Z,56.97
2018-09-06T00:36:49.475Z,61.00
2018-09-06T00:39:17.980Z,57.83
2018-09-06T00:41:46.481Z,61.30
2018-09-06T00:44:14.994Z,58.93
2018-09-06T00:46:43.495Z,59.00
2018-09-06T00:49:12.063Z,61.10
2018-09-06T00:51:40.529Z,59.40
2018-09-06T00:54:08.977Z,60.27
2018-09-06T00:56:37.503Z,59.77
2018-09-06T00:59:06.424Z,60.20
2018-09-06T01:01:34.944Z,58.40
2018-09-06T01:04:03.505Z,57.90
2018-09-06T01:06:32.034Z,55.67
2018-09-06T01:09:00.505Z,61.23
2018-09-06T01:11:29.001Z,57.37
2018-09-06T01:13:57.503Z,61.10
2018-09-06T01:16:26.045Z,55.77
2018-09-06T01:18:54.541Z,55.63
2018-09-06T01:21:23.048Z,57.07
2018-09-06T01:23:51.521Z,55.30
2018-09-06T01:26:20.005Z,54.60
2018-09-06T01:28:48.457Z,58.83
2018-09-06T01:31:16.941Z,61.80
2018-09-06T01:33:45.393Z,61.83
2018-09-06T01:36:19.104Z,61.50
2018-09-06T01:38:47.562Z,59.50
2018-09-06T01:41:16.067Z,61.13
2018-09-06T01:43:44.543Z,59.37
2018-09-06T01:46:13.029Z,58.30
2018-09-06T01:48:41.512Z,60.60
2018-09-06T01:51:09.965Z,61.33
2018-09-06T01:53:38.470Z,57.80
2018-09-06T01:56:07.062Z,56.43
2018-09-06T01:58:35.553Z,59.20
2018-09-06T02:01:04.037Z,55.97
2018-09-06T02:03:32.665Z,55.97
2018-09-06T02:06:01.140Z,54.70
2018-09-06T02:08:29.638Z,56.70
2018-09-06T02:10:58.130Z,54.80
2018-09-06T02:13:26.622Z,56.70
2018-09-06T02:15:55.125Z,50.07
2018-09-06T02:18:23.594Z,47.77
2018-09-06T02:20:52.177Z,51.43
2018-09-06T02:23:20.673Z,51.70
2018-09-06T02:25:49.157Z,54.80
2018-09-06T02:28:17.638Z,55.50
2018-09-06T02:30:46.125Z,52.50
2018-09-06T02:33:14.591Z,53.90
2018-09-06T02:35:43.067Z,57.03
2018-09-06T02:38:11.584Z,57.57
2018-09-06T02:40:40.694Z,57.17
2018-09-06T02:43:13.353Z,53.67
2018-09-06T02:45:43.215Z,50.43
2018-09-06T02:48:11.695Z,53.53
2018-09-06T02:50:45.569Z,53.40
2018-09-06T02:53:14.212Z,53.70
2018-09-06T02:55:43.081Z,56.10
2018-09-06T02:58:11.591Z,52.50
2018-09-06T03:00:40.111Z,50.53
2018-09-06T03:03:08.666Z,50.60
2018-09-06T03:05:37.108Z,49.77
2018-09-06T03:08:05.646Z,54.00
2018-09-06T03:10:42.524Z,50.70
2018-09-06T03:13:11.031Z,52.83
2018-09-06T03:15:39.549Z,54.77
2018-09-06T03:18:08.021Z,52.30
2018-09-06T03:20:36.828Z,54.00
2018-09-06T03:23:06.069Z,53.70
2018-09-06T03:25:34.806Z,55.77
2018-09-06T03:28:03.627Z,55.77
2018-09-06T03:30:32.111Z,54.10
2018-09-06T03:33:00.601Z,51.40
2018-09-06T03:35:29.053Z,55.37
2018-09-06T03:37:57.590Z,56.20
2018-09-06T03:40:26.046Z,54.87
2018-09-06T03:42:55.230Z,53.63
2018-09-06T03:45:23.806Z,52.97
2018-09-06T03:47:52.309Z,54.00
2018-09-06T03:50:20.797Z,53.17
2018-09-06T03:52:49.255Z,52.20
2018-09-06T03:55:17.774Z,51.10
2018-09-06T03:57:46.284Z,48.23
2018-09-06T04:00:14.900Z,48.73
2018-09-06T04:02:43.353Z,49.80
2018-09-06T04:05:11.881Z,47.80
2018-09-06T04:07:40.326Z,48.37
2018-09-06T04:10:08.855Z,46.87
2018-09-06T04:12:37.322Z,48.37
2018-09-06T04:15:05.882Z,50.37
2018-09-06T04:17:34.352Z,48.80
2018-09-06T04:20:02.875Z,46.47
2018-09-06T04:22:31.321Z,45.17
2018-09-06T04:24:59.798Z,48.00
2018-09-06T04:27:28.276Z,47.17
2018-09-06T04:29:56.755Z,47.60
2018-09-06T04:32:25.239Z,48.20
2018-09-06T04:35:00.183Z,47.60
2018-09-06T04:37:28.627Z,47.77
2018-09-06T04:39:57.091Z,47.50
2018-09-06T04:42:25.533Z,46.40
2018-09-06T04:44:54.205Z,52.43
2018-09-06T04:47:22.671Z,49.63
2018-09-06T04:49:51.093Z,47.23
2018-09-06T04:52:19.595Z,47.40
2018-09-06T04:54:48.057Z,46.73
2018-09-06T04:57:16.500Z,47.13
2018-09-06T04:59:44.962Z,46.80
2018-09-06T05:02:13.545Z,47.10
2018-09-06T05:04:42.079Z,43.37
2018-09-06T05:07:10.558Z,44.20
2018-09-06T05:09:39.033Z,48.90
2018-09-06T05:12:07.529Z,44.80
2018-09-06T05:14:36.999Z,46.93
2018-09-06T05:17:05.526Z,43.20
2018-09-06T05:19:34.073Z,42.87
2018-09-06T05:22:02.576Z,43.97
2018-09-06T05:24:31.260Z,43.80
2018-09-06T05:26:59.753Z,43.53
2018-09-06T05:29:28.209Z,41.63
2018-09-06T05:31:56.651Z,43.30
2018-09-06T05:34:25.149Z,42.77
2018-09-06T05:36:53.638Z,44.20
2018-09-06T05:39:22.153Z,43.27
2018-09-06T05:41:50.622Z,42.50
2018-09-06T05:44:19.142Z,40.90
2018-09-06T05:46:47.690Z,41.10
2018-09-06T05:49:17.021Z,40.47
2018-09-06T05:51:45.503Z,43.83
2018-09-06T05:54:13.974Z,41.97
2018-09-06T05:56:42.437Z,45.93
2018-09-06T05:59:10.872Z,44.60
2018-09-06T06:01:39.341Z,44.40
2018-09-06T06:04:07.826Z,42.50
2018-09-06T06:06:36.361Z,42.30
2018-09-06T06:09:07.271Z,43.50
2018-09-06T06:11:35.750Z,44.40
2018-09-06T06:14:04.253Z,43.27
2018-09-06T06:16:33.671Z,43.00
2018-09-06T06:19:02.146Z,45.73
2018-09-06T06:21:30.597Z,46.33
2018-09-06T06:23:59.075Z,46.80
2018-09-06T06:26:27.555Z,49.17
2018-09-06T06:28:56.036Z,48.17
2018-09-06T06:31:24.491Z,50.17
2018-09-06T06:33:52.980Z,49.23
2018-09-06T06:36:21.426Z,51.97
2018-09-06T06:38:49.949Z,50.50
2018-09-06T06:41:49.944Z,56.33
2018-09-06T06:44:18.480Z,51.60
2018-09-06T06:46:46.970Z,56.10
2018-09-06T06:49:15.873Z,53.47
2018-09-06T06:51:44.372Z,53.70
2018-09-06T06:54:12.913Z,51.97
2018-09-06T06:56:41.416Z,53.90
2018-09-06T06:59:09.930Z,50.63
2018-09-06T07:01:38.572Z,51.07
2018-09-06T07:04:07.160Z,56.40
2018-09-06T07:06:35.725Z,49.83
2018-09-06T07:09:06.489Z,53.07
2018-09-06T07:11:34.981Z,52.90
2018-09-06T07:14:03.478Z,51.20
2018-09-06T07:16:31.995Z,52.43
2018-09-06T07:19:00.491Z,50.83
2018-09-06T07:21:29.375Z,50.37
2018-09-06T07:23:58.277Z,52.50
2018-09-06T07:26:26.854Z,48.90
2018-09-06T07:28:55.327Z,49.90
2018-09-06T07:31:23.916Z,48.73
2018-09-06T07:33:52.834Z,44.77
2018-09-06T07:36:21.730Z,46.43
2018-09-06T07:38:50.266Z,45.30
2018-09-06T07:41:19.033Z,48.87
2018-09-06T07:43:47.582Z,48.17
2018-09-06T07:46:16.125Z,47.83
2018-09-06T07:48:44.610Z,46.90
2018-09-06T07:51:13.113Z,47.83
2018-09-06T07:53:41.645Z,49.30
2018-09-06T07:56:10.149Z,51.53
2018-09-06T07:58:38.755Z,49.53
2018-09-06T08:01:07.430Z,46.10
2018-09-06T08:03:35.977Z,48.80
2018-09-06T08:06:04.469Z,47.13
2018-09-06T08:08:33.089Z,47.20
2018-09-06T08:11:01.606Z,46.50
2018-09-06T08:13:30.273Z,49.33
2018-09-06T08:15:58.905Z,51.70
2018-09-06T08:18:27.442Z,49.33
2018-09-06T08:20:55.995Z,48.83
2018-09-06T08:23:24.514Z,50.13
2018-09-06T08:25:53.049Z,45.47
2018-09-06T08:28:21.730Z,50.77
2018-09-06T08:30:50.273Z,48.40
2018-09-06T08:33:18.949Z,44.97
2018-09-06T08:35:47.654Z,44.27
2018-09-06T08:38:16.175Z,44.10
2018-09-06T08:43:35.225Z,45.33
2018-09-06T08:46:03.761Z,40.97
2018-09-06T08:48:32.266Z,40.17
2018-09-06T08:51:00.786Z,38.40
2018-09-06T08:53:29.384Z,39.30
2018-09-06T08:55:57.880Z,36.97
2018-09-06T08:58:26.495Z,42.87
2018-09-06T09:01:00.361Z,40.77
2018-09-06T09:03:29.150Z,40.07
2018-09-06T09:05:57.684Z,41.47
2018-09-06T09:08:26.210Z,40.70
2018-09-06T09:10:54.709Z,42.70
2018-09-06T09:13:23.323Z,41.10
2018-09-06T09:15:51.912Z,40.73
2018-09-06T09:18:20.504Z,41.60
2018-09-06T09:20:48.977Z,44.13
2018-09-06T09:23:17.501Z,39.83
2018-09-06T09:25:46.087Z,43.57
2018-09-06T09:28:14.669Z,43.27
2018-09-06T09:30:43.352Z,44.17
2018-09-06T09:33:11.949Z,43.70
2018-09-06T09:35:40.508Z,44.47
2018-09-06T09:38:09.349Z,41.60
2018-09-06T09:40:37.925Z,41.70
2018-09-06T09:43:06.971Z,43.73
2018-09-06T09:45:35.490Z,43.90
2018-09-06T09:48:04.102Z,47.20
2018-09-06T09:53:00.530Z,48.60
2018-09-06T09:55:29.033Z,46.50
2018-09-06T09:57:57.688Z,47.30
2018-09-06T10:00:31.402Z,49.20
2018-09-06T10:03:05.162Z,47.87
2018-09-06T10:05:39.123Z,46.43
2018-09-06T10:08:12.898Z,45.93
2018-09-06T10:10:41.729Z,43.77
2018-09-06T10:13:10.739Z,47.20
2018-09-06T10:15:39.817Z,48.93
2018-09-06T10:18:08.614Z,45.60
2018-09-06T10:20:37.151Z,41.33
2018-09-06T10:23:05.970Z,46.97
2018-09-06T10:25:34.586Z,44.73
2018-09-06T10:28:03.360Z,47.00
2018-09-06T10:30:31.913Z,49.03
2018-09-06T10:33:00.578Z,47.50
2018-09-06T10:35:29.180Z,45.07
2018-09-06T10:37:57.841Z,45.80
2018-09-06T10:40:26.463Z,43.47
2018-09-06T10:42:55.165Z,43.87
2018-09-06T10:45:23.692Z,42.77
2018-09-06T10:47:52.262Z,42.20
2018-09-06T10:50:20.773Z,45.10
2018-09-06T10:52:49.317Z,42.27
2018-09-06T10:55:17.782Z,42.50
2018-09-06T10:57:46.304Z,40.87
2018-09-06T11:00:14.781Z,36.97
2018-09-06T11:02:43.672Z,38.27
2018-09-06T11:05:12.154Z,37.83
2018-09-06T11:07:40.668Z,35.40
2018-09-06T11:10:09.173Z,37.23
2018-09-06T11:12:37.697Z,37.70
2018-09-06T11:15:06.264Z,37.90
2018-09-06T11:17:34.801Z,35.83
2018-09-06T11:20:04.177Z,39.60
2018-09-06T11:22:33.065Z,36.23
2018-09-06T11:25:01.425Z,34.97
2018-09-06T11:27:29.898Z,34.53
2018-09-06T11:29:58.454Z,34.03
2018-09-06T11:32:27.063Z,32.90
2018-09-06T11:34:55.606Z,35.33
2018-09-06T11:37:24.125Z,35.90
2018-09-06T11:39:52.831Z,35.07
2018-09-06T11:42:21.338Z,34.30
2018-09-06T11:44:49.878Z,33.80
2018-09-06T11:47:18.491Z,29.93
2018-09-06T11:49:47.060Z,33.67
2018-09-06T11:52:15.572Z,32.03
2018-09-06T11:54:44.141Z,31.17
2018-09-06T11:57:12.912Z,31.90
2018-09-06T11:59:41.393Z,32.53
2018-09-06T12:02:09.961Z,33.13
2018-09-06T12:04:38.450Z,32.93
2018-09-06T12:07:06.928Z,32.33
2018-09-06T12:09:35.638Z,32.57
2018-09-06T12:12:04.169Z,31.67
2018-09-06T12:14:32.648Z,33.43
2018-09-06T12:17:01.171Z,31.03
2018-09-06T12:19:29.730Z,33.27
2018-09-06T12:21:58.296Z,35.60
2018-09-06T12:24:26.844Z,37.70
2018-09-06T12:26:55.427Z,33.20
2018-09-06T12:29:24.399Z,36.00
2018-09-06T12:31:53.032Z,35.20
2018-09-06T12:34:21.596Z,34.77
2018-09-06T12:36:50.109Z,36.20
2018-09-06T12:39:18.841Z,34.60
2018-09-06T12:41:47.433Z,38.33
2018-09-06T12:44:15.962Z,36.40
2018-09-06T12:46:44.497Z,34.37
2018-09-06T12:49:13.130Z,36.70
2018-09-06T12:51:41.644Z,36.00
2018-09-06T12:54:10.183Z,34.90
2018-09-06T12:56:38.824Z,35.43
2018-09-06T12:59:07.305Z,34.17
2018-09-06T13:01:35.806Z,36.67
2018-09-06T13:04:04.323Z,34.07
2018-09-06T13:06:32.804Z,35.03
2018-09-06T13:09:01.318Z,34.03
2018-09-06T13:11:29.924Z,33.23
2018-09-06T13:13:58.454Z,33.97
2018-09-06T13:16:26.981Z,31.90
2018-09-06T13:18:55.509Z,31.70
2018-09-06T13:21:24.197Z,33.73
2018-09-06T13:23:52.994Z,32.47
2018-09-06T13:26:21.488Z,29.17
2018-09-06T13:28:50.041Z,30.57
2018-09-06T13:31:19.132Z,32.23
2018-09-06T13:33:47.778Z,30.43
2018-09-06T13:36:16.323Z,30.97
2018-09-06T13:38:44.857Z,31.43
2018-09-06T13:41:13.411Z,33.27
2018-09-06T13:43:41.906Z,33.77
2018-09-06T13:46:10.478Z,29.10
2018-09-06T13:48:38.992Z,32.07
2018-09-06T13:51:07.524Z,32.00
2018-09-06T13:53:36.062Z,28.77
2018-09-06T13:56:04.627Z,32.00
2018-09-06T13:58:33.199Z,29.87
2018-09-06T14:01:03.950Z,28.37
2018-09-06T14:03:36.377Z,30.07
2018-09-06T14:06:07.719Z,27.80
2018-09-06T14:08:36.320Z,28.70
2018-09-06T14:11:07.559Z,28.90
2018-09-06T14:13:36.043Z,27.50
2018-09-06T14:16:06.297Z,29.60
2018-09-06T14:18:34.824Z,28.83
2018-09-06T14:21:03.329Z,29.67
2018-09-06T14:23:32.793Z,29.13
2018-09-06T14:26:01.277Z,30.53
2018-09-06T14:28:29.763Z,29.13
2018-09-06T14:30:58.301Z,29.00
2018-09-06T14:33:26.842Z,33.60
2018-09-06T14:35:55.486Z,30.63
2018-09-06T14:38:24.073Z,31.17
2018-09-06T14:40:52.643Z,29.77
2018-09-06T14:43:21.294Z,31.50
2018-09-06T14:45:49.948Z,30.93
2018-09-06T14:48:18.465Z,33.23
2018-09-06T14:50:46.970Z,31.37
2018-09-06T14:53:15.469Z,32.37
2018-09-06T14:55:44.105Z,33.00
2018-09-06T14:58:12.647Z,33.40
2018-09-06T15:00:41.870Z,22.33
2018-09-06T15:03:10.471Z,15.77
2018-09-06T15:05:39.002Z,16.73
2018-09-06T15:08:07.983Z,16.83
2018-09-06T15:10:36.723Z,18.10
2018-09-06T15:13:05.567Z,18.77
2018-09-06T15:15:34.133Z,20.37
2018-09-06T15:18:02.623Z,18.93
2018-09-06T15:20:31.220Z,20.10
2018-09-06T15:22:59.729Z,19.30
2018-09-06T15:25:28.374Z,19.13
2018-09-06T15:27:57.031Z,17.40
2018-09-06T15:30:25.682Z,17.40
2018-09-06T15:32:54.440Z,17.23
2018-09-06T15:35:24.231Z,19.00
2018-09-06T15:37:52.850Z,18.60
2018-09-06T15:40:21.485Z,19.20
2018-09-06T15:42:50.001Z,18.00
2018-09-06T15:45:18.498Z,20.40
2018-09-06T15:47:47.066Z,20.20
2018-09-06T15:50:15.582Z,17.90
2018-09-06T15:52:44.175Z,19.20
2018-09-06T15:55:14.415Z,17.77
2018-09-06T15:57:42.996Z,18.53
2018-09-06T16:00:11.873Z,18.50
2018-09-06T16:02:40.418Z,18.23
2018-09-06T16:05:08.923Z,18.30
2018-09-06T16:07:37.397Z,18.90
2018-09-06T16:10:05.970Z,18.90
2018-09-06T16:12:34.615Z,20.00
2018-09-06T16:15:03.115Z,21.90
2018-09-06T16:17:31.617Z,19.87
2018-09-06T16:20:00.262Z,21.00
2018-09-06T16:22:28.939Z,20.60
2018-09-06T16:24:57.607Z,19.13
2018-09-06T16:27:26.176Z,20.27
2018-09-06T16:29:54.858Z,22.37
2018-09-06T16:32:23.506Z,21.50
2018-09-06T16:34:52.010Z,22.60
2018-09-06T16:37:20.561Z,22.40
2018-09-06T16:39:49.059Z,25.07
2018-09-06T16:42:17.522Z,24.30
2018-09-06T16:44:45.980Z,24.17
2018-09-06T16:47:14.528Z,24.93
2018-09-06T16:49:43.634Z,24.43
2018-09-06T16:52:12.511Z,26.13
2018-09-06T16:54:41.922Z,24.10
2018-09-06T16:57:11.881Z,25.40
2018-09-06T16:59:43.180Z,23.20
2018-09-06T17:02:14.799Z,23.63
2018-09-06T17:04:43.415Z,25.80
2018-09-06T17:07:11.903Z,26.77
2018-09-06T17:09:40.348Z,25.70
2018-09-06T17:12:08.842Z,27.10
2018-09-06T17:14:37.381Z,27.77
2018-09-06T17:17:06.143Z,27.47
2018-09-06T17:19:34.637Z,27.30
2018-09-06T17:22:03.144Z,27.20
2018-09-06T17:24:31.657Z,27.20
2018-09-06T17:27:00.180Z,25.80
2018-09-06T17:29:28.670Z,25.30
2018-09-06T17:31:57.243Z,26.33
2018-09-06T17:34:25.826Z,29.63
2018-09-06T17:36:54.440Z,29.67
2018-09-06T17:39:22.991Z,26.27
2018-09-06T17:41:51.444Z,27.80
2018-09-06T17:44:19.885Z,26.50
2018-09-06T17:46:48.374Z,28.57
2018-09-06T17:49:16.906Z,28.53
2018-09-06T17:51:45.399Z,28.23
2018-09-06T17:54:13.866Z,27.43
2018-09-06T17:56:42.342Z,27.90
2018-09-06T17:59:10.857Z,29.03
2018-09-06T18:01:40.589Z,25.93
2018-09-06T18:04:09.162Z,29.10
2018-09-06T18:06:37.755Z,29.60
2018-09-06T18:09:09.609Z,27.20
2018-09-06T18:11:38.358Z,27.47
2018-09-06T18:14:06.937Z,27.67
2018-09-06T18:16:35.423Z,25.00
2018-09-06T18:19:03.954Z,26.10
2018-09-06T18:21:32.453Z,22.53
2018-09-06T18:24:00.974Z,24.50
2018-09-06T18:26:29.478Z,19.30
2018-09-06T18:28:58.198Z,20.50
2018-09-06T18:31:26.752Z,19.93
2018-09-06T18:33:55.288Z,17.00
2018-09-06T18:36:23.913Z,15.93
2018-09-06T18:38:52.402Z,16.20
2018-09-06T18:41:20.890Z,16.27
2018-09-06T18:43:49.369Z,15.87
2018-09-06T18:46:17.895Z,13.90
2018-09-06T18:48:46.371Z,14.07
2018-09-06T18:51:14.889Z,13.20
2018-09-06T18:53:43.500Z,14.20
2018-09-06T18:56:12.045Z,13.03
2018-09-06T18:58:40.562Z,13.87
2018-09-06T19:01:09.059Z,13.70
2018-09-06T19:03:37.656Z,13.90
2018-09-06T19:06:06.308Z,13.80
2018-09-06T19:08:34.851Z,13.50
2018-09-06T19:11:03.352Z,12.93
2018-09-06T19:13:31.829Z,13.63
2018-09-06T19:16:00.278Z,14.87
2018-09-06T19:18:28.932Z,14.00
2018-09-06T19:20:57.511Z,14.10
2018-09-06T19:23:26.204Z,14.67
2018-09-06T19:25:55.084Z,14.93
2018-09-06T19:28:23.591Z,14.93
2018-09-06T19:30:52.094Z,15.57
2018-09-06T19:33:20.537Z,15.17
2018-09-06T19:35:49.028Z,15.13
2018-09-06T19:38:17.502Z,14.97
2018-09-06T19:40:46.071Z,14.13
2018-09-06T19:43:14.560Z,14.30
2018-09-06T19:45:43.033Z,14.87
2018-09-06T19:48:11.511Z,15.23
2018-09-06T19:50:40.124Z,15.03
2018-09-06T19:53:08.634Z,14.60
2018-09-06T19:55:37.215Z,14.80
2018-09-06T19:58:05.793Z,13.90
2018-09-06T20:00:34.330Z,15.07
2018-09-06T20:03:02.876Z,14.47
2018-09-06T20:05:31.327Z,15.67
2018-09-06T20:07:59.933Z,14.73
2018-09-06T20:10:28.389Z,13.87
2018-09-06T20:12:56.944Z,13.90
2018-09-06T20:15:25.481Z,13.57
2018-09-06T20:17:54.003Z,15.70
2018-09-06T20:20:22.592Z,14.53
2018-09-06T20:22:51.078Z,13.47
2018-09-06T20:25:19.648Z,13.90
2018-09-06T20:27:48.210Z,14.30
2018-09-06T20:30:16.781Z,14.80
2018-09-06T20:32:45.345Z,14.63
2018-09-06T20:35:13.843Z,13.90
2018-09-06T20:37:42.414Z,14.33
2018-09-06T20:40:10.966Z,13.83
2018-09-06T20:42:39.503Z,12.60
2018-09-06T20:45:08.006Z,13.40
2018-09-06T20:47:36.505Z,13.47
2018-09-06T20:50:05.059Z,13.60
2018-09-06T20:52:33.596Z,14.00
2018-09-06T20:55:02.180Z,13.07
2018-09-06T20:57:30.730Z,15.97
2018-09-06T20:59:59.576Z,14.17
2018-09-06T21:02:32.382Z,14.37
2018-09-06T21:05:00.882Z,13.40
2018-09-06T21:07:29.445Z,15.43
2018-09-06T21:09:58.078Z,14.33
2018-09-06T21:12:26.617Z,13.50
2018-09-06T21:14:55.297Z,14.40
2018-09-06T21:17:23.855Z,13.57
2018-09-06T21:19:52.971Z,14.57
2018-09-06T21:22:21.717Z,13.60
2018-09-06T21:24:50.224Z,15.67
2018-09-06T21:27:18.732Z,16.00
2018-09-06T21:29:50.203Z,14.23
2018-09-06T21:32:19.350Z,16.27
2018-09-06T21:34:47.882Z,15.40
2018-09-06T21:37:16.401Z,15.50
2018-09-06T21:39:44.914Z,15.60
2018-09-06T21:42:13.505Z,17.73
2018-09-06T21:44:41.978Z,17.10
2018-09-06T21:47:10.476Z,17.47
2018-09-06T21:49:39.033Z,16.20
2018-09-06T21:52:07.550Z,15.90
2018-09-06T21:54:36.128Z,16.63
2018-09-06T21:57:04.743Z,17.33
2018-09-06T21:59:33.269Z,17.23
2018-09-06T22:02:01.861Z,16.10
2018-09-06T22:04:30.413Z,17.67
2018-09-06T22:06:58.983Z,16.23
2018-09-06T22:09:28.151Z,16.80
2018-09-06T22:11:56.702Z,17.60
2018-09-06T22:14:25.318Z,19.30
2018-09-06T22:16:53.861Z,18.13
2018-09-06T22:19:22.357Z,19.00
2018-09-06T22:21:50.865Z,18.40
2018-09-06T22:24:19.337Z,17.40
2018-09-06T22:26:47.870Z,19.70
2018-09-06T22:29:16.352Z,18.20
2018-09-06T22:31:44.865Z,18.23
2018-09-06T22:34:13.380Z,18.40
2018-09-06T22:36:41.933Z,16.83
2018-09-06T22:39:10.897Z,15.40
2018-09-06T22:41:39.467Z,16.60
2018-09-06T22:44:08.134Z,15.53
2018-09-06T22:46:36.680Z,16.87
2018-09-06T22:49:05.557Z,15.20
2018-09-06T22:51:34.041Z,14.77
2018-09-06T22:54:02.613Z,15.00
2018-09-06T22:56:31.122Z,15.70
2018-09-06T22:58:59.621Z,14.27
2018-09-06T23:01:28.119Z,15.00
2018-09-06T23:03:56.678Z,14.50
2018-09-06T23:06:25.716Z,15.27
2018-09-06T23:08:54.232Z,15.70
2018-09-06T23:11:22.696Z,15.27
2018-09-06T23:13:51.190Z,16.70
2018-09-06T23:16:19.657Z,16.50
2018-09-06T23:18:48.209Z,13.80
2018-09-06T23:21:16.719Z,15.67
2018-09-06T23:23:45.258Z,16.30
2018-09-06T23:26:13.769Z,13.90
2018-09-06T23:28:42.225Z,14.83
2018-09-06T23:31:10.757Z,13.73
2018-09-06T23:33:39.282Z,15.20
2018-09-06T23:36:07.773Z,15.20
2018-09-06T23:38:36.248Z,14.60
2018-09-06T23:41:04.823Z,14.90
2018-09-06T23:43:33.399Z,14.80
2018-09-06T23:46:01.921Z,15.50
2018-09-06T23:48:30.664Z,13.93
2018-09-06T23:50:59.533Z,13.80
2018-09-06T23:53:28.815Z,14.37
2018-09-06T23:55:57.285Z,13.00
2018-09-06T23:58:26.290Z,12.10
